Latest Weather Observations for Pearce

IDW60901

Issued at 5:01 pm WST Wednesday 10 August 2022 (issued every 10 minutes, with the page automatically refreshed every 10 minutes)

About weather observations | Map of Perth area stations | Latest observations for Perth area | Other Formats
Station Details ID: 009053 Name: PEARCE RAAF Lat: -31.67 Lon: 116.02 Height: 40.0 m
Data from the previous 72 hours. | See also: Recent months at Pearce
Date/Time
WST
Temp
°C
App
Temp
°C
Dew
Point
°C
Rel
Hum
%
Delta-T
°C
Wind Press
QNH
hPa
Press
MSL
hPa
Rain since
9am
mm
Dir  Spd
km/h
Gust
km/h
Spd
kts
Gust
kts
10/05:00pm 14.8 11.8 7.6 62 3.6 SSW 13 20 7 11 1023.2 1023.2 0.0
10/04:30pm 15.5 11.3 7.3 58 4.1 SW 19 22 10 12 1022.8 1022.8 0.0
10/04:00pm 16.0 12.8 7.0 55 4.4 SSW 13 19 7 10 1022.7 1022.7 0.0
10/03:30pm 16.1 12.5 6.8 54 4.6 SSE 15 24 8 13 1022.8 1022.8 0.0
10/03:00pm 15.6 11.3 6.9 56 4.3 SSE 19 28 10 15 1022.8 1022.8 0.0
10/02:30pm 16.3 11.8 7.0 54 4.6 S 20 30 11 16 1022.7 1022.7 0.0
10/02:00pm 16.4 11.8 6.5 52 4.8 S 20 28 11 15 1022.5 1022.5 0.0
10/01:30pm 15.7 11.4 5.3 50 5.0 S 17 22 9 12 1022.7 1022.7 0.0
10/01:00pm 15.5 10.5 4.8 49 5.0 S 20 28 11 15 1023.2 1023.2 0.0
10/12:30pm 15.1 10.4 6.1 55 4.3 SSW 20 28 11 15 1023.6 1023.6 0.0
10/12:00pm 14.9 10.3 6.5 57 4.1 S 20 30 11 16 1023.7 1023.7 0.0
10/11:30am 14.1 10.1 6.5 60 3.7 SSE 17 22 9 12 1024.0 1024.0 0.0
10/11:00am 13.5 10.8 7.3 66 3.0 S 11 17 6 9 1024.1 1024.1 0.0
10/10:30am 12.4 10.9 6.9 69 2.6 WSW 4 11 2 6 1024.3 1024.3 0.0
10/10:00am 11.8 10.0 7.9 77 1.9 NNW 7 9 4 5 1024.1 1024.1 0.0
10/09:30am 10.8 9.7 8.4 85 1.2 WNW 4 7 2 4 1023.8 1023.8 0.0
10/09:00am 9.2 7.8 7.3 88 0.9 N 4 6 2 3 1023.6 1023.6 10.2
10/08:30am 7.8 6.6 6.4 91 0.6 NNW 2 6 1 3 1023.5 1023.5 10.2
10/08:00am 7.2 6.3 6.0 92 0.5 CALM 0 2 0 1 1023.1 1023.1 10.2
10/07:30am 6.6 5.2 5.4 92 0.5 ENE 2 7 1 4 1022.9 1022.9 10.2
10/07:00am 6.2 3.7 5.0 92 0.5 ENE 7 11 4 6 1022.5 1022.5 10.0
10/06:30am 6.1 3.7 5.1 93 0.4 ENE 7 9 4 5 1022.1 1022.1 10.0
10/06:00am 5.6 3.1 4.6 93 0.4 ENE 7 9 4 5 1021.4 1021.4 10.0
10/05:30am 5.5 3.9 4.5 93 0.4 NE 2 7 1 4 1020.8 1020.8 10.0
10/05:00am 5.9 4.8 4.9 93 0.4 CALM 0 0 0 0 1020.5 1020.5 10.0
10/04:30am 6.2 4.3 5.0 92 0.5 NE 4 7 2 4 1020.3 1020.3 10.0
10/04:00am 6.6 3.5 5.6 93 0.4 ENE 11 13 6 7 1020.2 1020.2 10.0
10/03:30am 6.3 3.5 5.3 93 0.4 E 9 11 5 6 1020.1 1020.1 10.0
10/03:00am 6.8 5.4 5.7 93 0.5 NNW 2 6 1 3 1020.2 1020.2 10.0
10/02:30am 6.7 4.0 5.7 93 0.4 NNE 9 13 5 7 1020.1 1020.1 10.0
10/02:00am 6.9 3.5 6.0 94 0.4 N 13 17 7 9 1020.2 1020.2 10.0
10/01:30am 7.0 4.4 6.1 94 0.4 N 9 13 5 7 1020.2 1020.2 10.0
10/01:00am 7.0 5.7 6.1 94 0.4 NW 2 7 1 4 1019.9 1019.9 10.0
10/12:30am 6.9 4.6 5.8 93 0.5 NE 7 11 4 6 1019.6 1019.6 10.0
10/12:00am 7.5 5.0 6.4 93 0.5 NW 9 11 5 6 1019.9 1019.9 10.0
 
Date/Time
WST
Temp
°C
App
Temp
°C
Dew
Point
°C
Rel
Hum
%
Delta-T
°C
Wind Press
QNH
hPa
Press
MSL
hPa
Rain since
9am
mm
Dir  Spd
km/h
Gust
km/h
Spd
kts
Gust
kts
09/11:30pm 7.2 5.0 6.1 93 0.5 NNE 7 9 4 5 1019.5 1019.5 10.0
09/11:00pm 7.6 6.0 6.4 92 0.5 NNE 4 9 2 5 1019.4 1019.4 10.0
09/10:30pm 7.6 5.7 6.5 93 0.5 NNE 6 9 3 5 1019.2 1019.2 10.0
09/10:00pm 7.7 4.8 6.6 93 0.5 N 11 15 6 8 1019.3 1019.3 10.0
09/09:30pm 8.0 5.2 6.9 93 0.5 N 11 13 6 7 1019.2 1019.2 9.8
09/09:00pm 7.8 5.3 6.6 92 0.6 SW 9 11 5 6 1018.9 1018.9 9.8
09/08:30pm 8.1 5.6 6.7 91 0.6 SW 9 15 5 8 1018.6 1018.6 9.8
09/08:00pm 8.2 5.7 6.5 89 0.8 SW 9 11 5 6 1017.6 1017.6 9.8
09/07:30pm 8.6 6.6 6.9 89 0.8 SW 7 9 4 5 1017.4 1017.4 9.8
09/07:00pm 8.7 6.9 7.0 89 0.8 SSW 6 7 3 4 1017.3 1017.3 9.4
09/06:30pm 8.5 6.4 6.5 87 0.9 SW 7 9 4 5 1016.6 1016.6 9.4
09/06:00pm 9.2 6.0 7.0 86 1.0 SW 13 17 7 9 1016.3 1016.3 9.4
09/05:30pm 9.6 6.0 6.9 83 1.3 SSW 15 22 8 12 1015.7 1015.7 9.2
09/05:00pm 10.3 7.9 6.8 79 1.6 SSW 9 11 5 6 1015.4 1015.3 8.6
09/04:30pm 10.4 6.8 6.9 79 1.7 SW 15 19 8 10 1015.2 1015.1 8.6
09/04:00pm 9.7 5.1 6.6 81 1.4 W 20 39 11 21 1014.8 1014.8 8.2
09/03:30pm 10.9 8.5 6.8 76 1.9 SW 9 15 5 8 1014.4 1014.4 8.0
09/03:00pm 11.1 8.8 7.6 79 1.7 NW 9 13 5 7 1014.1 1014.1 8.0
09/02:30pm 10.2 7.0 6.9 80 1.6 NNW 13 19 7 10 1013.8 1013.8 8.0
09/02:00pm 10.1 7.2 6.3 77 1.8 WNW 11 15 6 8 1013.7 1013.7 7.6
09/01:42pm 10.4 8.2 8.0 85 1.2 WNW 9 13 5 7 1013.6 1013.6 7.6
09/01:30pm 9.3 6.1 6.9 85 1.1 W 13 20 7 11 1013.6 1013.6 7.6
09/01:00pm 9.8 6.9 6.5 80 1.5 W 11 15 6 8 1013.6 1013.6 6.6
09/12:30pm 9.6 7.0 6.0 78 1.7 SW 9 13 5 7 1013.6 1013.6 6.2
09/12:00pm 10.9 7.2 8.0 82 1.4 S 17 22 9 12 1013.6 1013.6 6.0
09/11:30am 8.1 4.2 5.2 82 1.3 SSW 15 22 8 12 1014.3 1014.3 5.4
09/11:00am 8.7 6.6 6.5 86 1.0 SSE 7 11 4 6 1013.9 1013.9 3.2
09/10:30am 8.2 4.8 6.0 86 1.0 S 13 17 7 9 1013.8 1013.8 2.2
09/10:00am 7.9 5.4 6.5 91 0.6 WNW 9 11 5 6 1013.6 1013.6 1.4
09/09:30am 8.0 5.8 6.1 88 0.9 NNE 7 13 4 7 1012.5 1012.5 0.4
09/09:09am 7.7 4.3 6.0 89 0.8 ESE 13 15 7 8 1011.8 1011.8 0.4
09/09:00am 7.6 4.5 5.7 88 0.9 ESE 11 15 6 8 1011.8 1011.8 27.8
09/08:42am 8.0 4.6 5.8 86 1.0 SE 13 20 7 11 1011.9 1011.9 27.4
09/08:30am 8.5 5.6 6.5 87 0.9 SE 11 20 6 11 1012.2 1012.2 26.6
09/08:00am 8.4 6.4 6.4 87 0.9 S 6 9 3 5 1011.0 1011.0 26.2
09/07:30am 8.1 4.8 6.6 90 0.7 N 13 26 7 14 1010.5 1010.5 25.8
09/07:00am 8.1 4.0 6.2 88 0.9 NNW 17 20 9 11 1010.1 1010.1 25.8
09/06:30am 8.0 4.1 5.5 84 1.1 W 15 22 8 12 1009.7 1009.7 25.6
09/06:00am 7.8 5.6 5.3 84 1.1 SSW 6 11 3 6 1009.6 1009.6 25.4
09/05:30am 8.1 5.5 6.2 88 0.9 NW 9 17 5 9 1010.0 1010.0 25.0
09/05:00am 8.1 5.5 6.1 87 0.9 W 9 11 5 6 1009.6 1009.6 24.6
09/04:55am 8.1 5.5 6.1 87 0.9 SW 9 17 5 9 1009.5 1009.5 24.6
09/04:42am 7.8 4.8 6.1 89 0.8 S 11 17 6 9 1009.3 1009.3 24.4
09/04:30am 8.0 5.0 6.1 88 0.9 SE 11 15 6 8 1009.2 1009.2 23.0
09/04:15am 8.1 3.6 6.1 87 0.9 SW 19 28 10 15 1009.4 1009.4 23.0
09/04:00am 7.9 3.5 6.4 90 0.7 W 19 24 10 13 1010.1 1010.1 23.0
09/03:31am 8.2 6.0 6.3 88 0.9 W 7 11 4 6 1009.3 1009.3 19.8
09/03:30am 8.2 6.0 6.3 88 0.9 WSW 7 11 4 6 1009.4 1009.4 19.6
09/03:00am 8.1 5.2 6.6 90 0.7 N 11 17 6 9 1009.6 1009.6 18.2
09/02:30am 8.1 5.1 6.1 87 0.9 WNW 11 15 6 8 1009.8 1009.8 18.2
09/02:28am 8.1 5.1 6.1 87 0.9 WNW 11 17 6 9 1009.9 1009.9 18.2
09/02:07am 8.4 2.9 5.9 84 1.1 NW 24 43 13 23 1010.6 1010.6 17.2
09/02:05am 8.5 3.8 6.0 84 1.1 NNW 20 41 11 22 1010.7 1010.7 16.4
09/02:00am 8.7 4.6 6.2 84 1.2 N 17 20 9 11 1010.1 1010.1 15.8
09/01:30am 8.4 5.0 5.9 84 1.1 N 13 19 7 10 1010.2 1010.2 15.8
09/01:00am 8.5 5.9 6.0 84 1.1 NE 9 13 5 7 1010.5 1010.5 15.4
09/12:30am 8.9 6.2 5.8 81 1.4 WNW 9 13 5 7 1011.0 1011.0 15.4
09/12:00am 9.1 5.4 6.4 83 1.3 WNW 15 20 8 11 1011.5 1011.5 15.4
 
Date/Time
WST
Temp
°C
App
Temp
°C
Dew
Point
°C
Rel
Hum
%
Delta-T
°C
Wind Press
QNH
hPa
Press
MSL
hPa
Rain since
9am
mm
Dir  Spd
km/h
Gust
km/h
Spd
kts
Gust
kts
08/11:30pm 8.9 5.7 7.0 88 0.9 N 13 17 7 9 1011.3 1011.3 15.4
08/11:00pm 8.6 6.1 6.4 86 1.0 NNW 9 13 5 7 1011.7 1011.7 15.4
08/10:39pm 9.6 5.0 6.7 82 1.4 WNW 20 44 11 24 1012.5 1012.5 15.4
08/10:30pm 9.6 6.3 6.3 80 1.5 NW 13 15 7 8 1012.0 1012.0 15.0
08/10:00pm 10.6 4.2 6.9 78 1.8 W 30 50 16 27 1012.3 1012.3 15.0
08/09:56pm 10.5 4.4 6.8 78 1.7 W 28 50 15 27 1012.3 1012.3 15.0
08/09:51pm 10.7 6.2 7.0 78 1.8 WNW 20 50 11 27 1012.3 1012.3 15.0
08/09:30pm 9.8 6.3 7.4 85 1.1 NW 15 20 8 11 1012.3 1012.3 14.6
08/09:00pm 9.3 6.8 6.7 84 1.2 NNW 9 11 5 6 1012.3 1012.3 14.6
08/08:30pm 10.4 6.1 7.1 80 1.6 NW 19 28 10 15 1012.6 1012.6 14.6
08/08:00pm 10.5 7.3 8.6 88 0.9 NNW 15 32 8 17 1012.9 1012.9 14.4
08/07:30pm 10.8 8.4 8.6 86 1.1 NW 11 19 6 10 1012.3 1012.3 14.4
08/07:00pm 11.5 7.7 8.9 84 1.3 NW 19 24 10 13 1012.2 1012.2 14.4
08/06:30pm 11.6 8.9 8.8 83 1.4 NW 13 15 7 8 1011.7 1011.7 14.2
08/06:00pm 12.5 9.1 9.0 79 1.8 W 17 22 9 12 1011.6 1011.6 14.2
08/05:30pm 13.4 9.3 8.5 72 2.5 W 20 30 11 16 1011.6 1011.6 14.2
08/05:00pm 14.2 11.3 9.6 74 2.4 W 15 22 8 12 1011.1 1011.1 14.2
08/04:30pm 13.9 12.8 12.1 89 1.0 NNW 9 11 5 6 1010.9 1010.9 14.2
08/04:00pm 13.6 11.8 12.2 91 0.8 NW 13 17 7 9 1011.0 1011.0 14.2
08/03:59pm 13.5 11.7 12.1 91 0.8 NW 13 17 7 9 1011.0 1011.0 14.2
08/03:39pm 13.3 11.0 11.9 91 0.8 NNW 15 19 8 10 1011.2 1011.2 13.8
08/03:30pm 13.5 10.9 12.1 91 0.8 N 17 22 9 12 1010.9 1010.9 13.0
08/03:00pm 13.3 11.5 12.0 92 0.7 N 13 17 7 9 1011.3 1011.3 12.8
08/02:30pm 12.8 11.1 11.2 90 0.8 NW 11 15 6 8 1011.3 1011.3 12.2
08/02:20pm 12.8 10.7 11.2 90 0.8 WNW 13 19 7 10 1011.3 1011.3 12.2
08/02:03pm 13.3 9.4 12.2 93 0.6 NNW 24 50 13 27 1011.5 1011.5 11.8
08/02:01pm 13.3 9.4 12.0 92 0.7 NNW 24 50 13 27 1011.3 1011.3 11.8
08/02:00pm 13.2 9.6 11.9 92 0.7 NNW 22 50 12 27 1011.2 1011.2 11.4
08/01:57pm 13.6 10.8 12.5 93 0.6 N 19 24 10 13 1011.2 1011.2 10.6
08/01:30pm 13.5 11.0 12.4 93 0.6 N 17 20 9 11 1011.3 1011.3 9.0
08/01:17pm 13.5 11.0 12.4 93 0.6 N 17 20 9 11 1011.7 1011.7 9.0
08/01:00pm 13.4 11.3 12.3 93 0.6 N 15 19 8 10 1011.9 1011.9 8.8
08/12:54pm 13.2 11.4 12.1 93 0.6 NNW 13 19 7 10 1012.0 1012.0 8.4
08/12:30pm 13.2 11.3 11.8 91 0.7 WNW 13 19 7 10 1012.3 1012.3 5.8
08/12:19pm 13.4 11.2 12.0 91 0.8 WNW 15 20 8 11 1012.5 1012.5 2.6
08/12:15pm 13.4 10.8 12.0 91 0.8 NW 17 28 9 15 1012.5 1012.5 2.6
08/12:07pm 13.4 9.8 11.8 90 0.9 NNW 22 28 12 15 1012.6 1012.6 2.2
08/12:00pm 13.5 9.5 11.7 89 1.0 NNW 24 30 13 16 1012.5 1012.5 1.0
08/11:46am 13.7 8.1 11.4 86 1.2 NNW 32 44 17 24 1012.3 1012.3 0.4
08/11:30am 14.6 9.7 11.4 81 1.7 N 28 35 15 19 1012.5 1012.5 0.0
08/11:00am 15.7 9.7 10.0 69 3.0 NNW 32 43 17 23 1013.0 1013.0 0.0
08/10:30am 15.9 10.2 9.8 67 3.2 N 30 43 16 23 1013.1 1013.1 0.0
08/10:00am 14.8 9.8 9.6 71 2.7 N 26 37 14 20 1013.7 1013.7 0.0
08/09:30am 13.3 8.8 9.9 80 1.8 N 24 30 13 16 1014.2 1014.2 0.0
08/09:00am 13.6 8.8 8.9 73 2.4 N 24 30 13 16 1014.4 1014.4 0.0
08/08:30am 13.6 8.7 8.4 71 2.6 N 24 35 13 19 1014.2 1014.2 0.0
08/08:00am 13.5 8.1 7.9 69 2.8 N 26 32 14 17 1014.2 1014.2 0.0
08/07:30am 12.4 8.1 7.9 74 2.2 N 20 24 11 13 1014.4 1014.4 0.0
08/07:00am 12.6 8.2 7.5 71 2.5 N 20 28 11 15 1014.5 1014.5 0.0
08/06:30am 12.5 8.7 7.4 71 2.5 N 17 20 9 11 1014.5 1014.5 0.0
08/06:00am 12.2 7.9 6.9 70 2.5 N 19 24 10 13 1014.2 1014.2 0.0
08/05:30am 12.1 8.1 6.8 70 2.5 N 17 20 9 11 1014.4 1014.4 0.0
08/05:00am 12.4 9.3 7.1 70 2.6 N 13 15 7 8 1014.5 1014.5 0.0
08/04:30am 12.4 9.2 6.9 69 2.6 N 13 17 7 9 1014.7 1014.7 0.0
08/04:00am 11.6 8.8 6.9 73 2.2 N 11 13 6 7 1015.0 1014.9 0.0
08/03:30am 12.3 9.0 6.6 68 2.7 N 13 17 7 9 1015.3 1015.2 0.0
08/03:00am 12.7 9.4 6.5 66 3.0 N 13 17 7 9 1015.4 1015.3 0.0
08/02:30am 12.8 9.2 6.6 66 3.0 N 15 19 8 10 1015.7 1015.7 0.0
08/02:00am 12.2 10.0 7.9 75 2.1 N 9 13 5 7 1016.2 1016.2 0.0
08/01:30am 12.5 10.8 7.4 71 2.5 N 6 7 3 4 1016.6 1016.6 0.0
08/01:00am 12.3 10.4 7.4 72 2.4 N 7 9 4 5 1016.7 1016.7 0.0
08/12:30am 12.5 9.7 7.0 69 2.7 N 11 15 6 8 1017.0 1017.0 0.0
08/12:00am 12.4 9.3 7.1 70 2.6 N 13 17 7 9 1017.1 1017.1 0.0
 
Date/Time
WST
Temp
°C
App
Temp
°C
Dew
Point
°C
Rel
Hum
%
Delta-T
°C
Wind Press
QNH
hPa
Press
MSL
hPa
Rain since
9am
mm
Dir  Spd
km/h
Gust
km/h
Spd
kts
Gust
kts
07/11:30pm 12.3 9.2 7.2 71 2.5 NE 13 17 7 9 1017.2 1017.2 0.0
07/11:00pm 12.4 9.6 7.1 70 2.6 NNE 11 17 6 9 1017.3 1017.3 0.0
07/10:30pm 12.7 10.3 7.0 68 2.8 NE 9 11 5 6 1017.5 1017.5 0.0
07/10:00pm 13.0 10.6 7.0 67 2.9 NNE 9 11 5 6 1017.7 1017.7 0.0
07/09:30pm 13.3 11.3 7.1 66 3.0 NE 7 11 4 6 1017.9 1017.9 0.0
07/09:00pm 13.0 11.2 7.9 71 2.5 N 7 9 4 5 1017.9 1017.9 0.0
07/08:30pm 13.3 11.4 7.7 69 2.8 N 7 11 4 6 1017.8 1017.8 0.0
07/08:00pm 13.4 11.1 7.6 68 2.8 N 9 11 5 6 1017.8 1017.8 0.0
07/07:30pm 13.4 11.4 8.5 72 2.5 N 9 11 5 6 1017.7 1017.7 0.0
07/07:00pm 13.7 12.1 7.9 68 2.9 N 6 7 3 4 1017.4 1017.4 0.0
07/06:30pm 14.0 12.2 8.0 67 3.0 NW 7 7 4 4 1017.0 1017.0 0.0
07/06:00pm 14.2 12.2 7.0 62 3.5 WNW 7 9 4 5 1016.9 1016.9 0.0
07/05:30pm 14.6 12.7 7.4 62 3.6 WSW 7 9 4 5 1016.7 1016.7 0.0

Latest Capital City Observations: Canberra | Sydney | Melbourne | Brisbane | Adelaide | Perth | Hobart | Darwin

Other formats

Comma delimited format used in spreadsheet applications
http://www.bom.gov.au/fwo/IDW60901/IDW60901.94612.axf

JavaScript Object Notation format (JSON) in row-major order
http://www.bom.gov.au/fwo/IDW60901/IDW60901.94612.json

Data quality

Most of these data are generated automatically and are frequently updated. Quality checks on data are not normally performed. It is possible for incorrect values to appear. Refer to information at About Latest Weather Observations and please check the disclaimer before using these data.